createdAt,value
2023-05-03T00:00:05.734Z,87.57
2023-05-03T00:00:37.948Z,87.47
2023-05-03T00:01:10.362Z,88.30
2023-05-03T00:01:42.820Z,88.71
2023-05-03T00:02:15.264Z,88.51
2023-05-03T00:02:47.705Z,88.09
2023-05-03T00:03:20.082Z,87.68
2023-05-03T00:03:52.497Z,87.57
2023-05-03T00:04:24.906Z,87.47
2023-05-03T00:04:57.377Z,87.57
2023-05-03T00:05:29.859Z,87.88
2023-05-03T00:06:02.189Z,87.88
2023-05-03T00:06:34.714Z,88.40
2023-05-03T00:07:07.289Z,88.20
2023-05-03T00:07:39.719Z,88.40
2023-05-03T00:08:12.175Z,88.30
2023-05-03T00:08:44.589Z,88.82
2023-05-03T00:09:17.026Z,88.71
2023-05-03T00:09:49.485Z,89.23
2023-05-03T00:10:21.928Z,89.75
2023-05-03T00:10:54.385Z,89.65
2023-05-03T00:11:26.815Z,88.82
2023-05-03T00:11:59.196Z,88.82
2023-05-03T00:12:31.665Z,89.19
2023-05-03T00:13:04.075Z,88.67
2023-05-03T00:13:36.467Z,88.57
2023-05-03T00:14:08.917Z,88.36
2023-05-03T00:14:41.332Z,88.16
2023-05-03T00:15:13.751Z,87.85
2023-05-03T00:15:46.174Z,87.43
2023-05-03T00:16:18.607Z,87.64
2023-05-03T00:16:51.385Z,87.18
2023-05-03T00:17:23.781Z,86.46
2023-05-03T00:17:56.210Z,86.25
2023-05-03T00:18:28.727Z,86.05
2023-05-03T00:19:01.154Z,85.74
2023-05-03T00:19:33.565Z,85.42
2023-05-03T00:20:06.099Z,85.74
2023-05-03T00:20:38.381Z,85.91
2023-05-03T00:21:10.811Z,85.49
2023-05-03T00:21:43.218Z,84.87
2023-05-03T00:22:15.896Z,85.08
2023-05-03T00:22:48.337Z,85.18
2023-05-03T00:23:20.776Z,85.70
2023-05-03T00:23:53.208Z,86.32
2023-05-03T00:24:25.678Z,86.73
2023-05-03T00:24:58.106Z,85.80
2023-05-03T00:25:30.524Z,85.28
2023-05-03T00:26:03.019Z,85.18
2023-05-03T00:26:35.515Z,85.08
2023-05-03T00:27:07.981Z,85.91
2023-05-03T00:27:40.387Z,86.11
2023-05-03T00:28:12.813Z,86.83
2023-05-03T00:28:45.257Z,86.63
2023-05-03T00:29:17.703Z,86.63
2023-05-03T00:29:50.094Z,86.63
2023-05-03T00:30:22.588Z,87.66
2023-05-03T00:30:55.024Z,87.56
2023-05-03T00:31:27.429Z,86.73
2023-05-03T00:31:59.844Z,86.73
2023-05-03T00:32:32.309Z,86.11
2023-05-03T00:33:04.709Z,86.42
2023-05-03T00:33:37.223Z,87.46
2023-05-03T00:34:09.594Z,87.60
2023-05-03T00:34:42.017Z,88.22
2023-05-03T00:35:14.426Z,88.64
2023-05-03T00:35:46.817Z,87.70
2023-05-03T00:36:19.216Z,88.12
2023-05-03T00:36:51.686Z,88.01
2023-05-03T00:37:24.074Z,87.70
2023-05-03T00:37:56.523Z,87.29
2023-05-03T00:38:28.971Z,87.12
2023-05-03T00:39:01.482Z,87.33
2023-05-03T00:39:33.895Z,87.74
2023-05-03T00:40:06.439Z,88.67
2023-05-03T00:40:38.722Z,88.98
2023-05-03T00:41:11.183Z,89.40
2023-05-03T00:41:43.636Z,88.67
2023-05-03T00:42:16.068Z,89.19
2023-05-03T00:42:48.468Z,89.19
2023-05-03T00:43:20.882Z,89.29
2023-05-03T00:43:53.353Z,89.09
2023-05-03T00:44:25.744Z,88.78
2023-05-03T00:44:58.189Z,88.88
2023-05-03T00:45:30.636Z,88.98
2023-05-03T00:46:12.917Z,88.67
2023-05-03T00:46:35.571Z,89.40
2023-05-03T00:47:08.012Z,88.82
2023-05-03T00:47:40.405Z,88.40
2023-05-03T00:48:12.863Z,88.71
2023-05-03T00:48:45.245Z,88.88
2023-05-03T00:49:17.675Z,88.36
2023-05-03T00:49:50.109Z,87.95
2023-05-03T00:50:22.576Z,87.85
2023-05-03T00:50:54.976Z,87.74
2023-05-03T00:51:27.400Z,88.57
2023-05-03T00:51:59.780Z,89.19
2023-05-03T00:52:32.222Z,88.67
2023-05-03T00:53:04.659Z,88.36
2023-05-03T00:53:37.087Z,88.16
2023-05-03T00:54:09.496Z,88.09
2023-05-03T00:54:41.932Z,87.99
2023-05-03T00:55:14.353Z,89.03
2023-05-03T00:55:46.789Z,89.13
2023-05-03T00:56:19.184Z,89.44
2023-05-03T00:56:52.709Z,89.34
2023-05-03T00:57:24.037Z,89.34
2023-05-03T00:57:56.436Z,89.23
2023-05-03T00:58:28.827Z,89.07
2023-05-03T00:59:01.252Z,89.48
2023-05-03T00:59:33.658Z,89.07
2023-05-03T01:00:06.295Z,89.38
2023-05-03T01:00:38.558Z,89.58
2023-05-03T01:01:11.018Z,89.28
2023-05-03T01:01:43.393Z,89.52
2023-05-03T01:02:15.826Z,90.45
2023-05-03T01:02:48.300Z,90.45
2023-05-03T01:03:20.765Z,90.14
2023-05-03T01:03:53.162Z,89.83
2023-05-03T01:04:25.588Z,90.04
2023-05-03T01:04:58.008Z,90.14
2023-05-03T01:05:30.464Z,90.04
2023-05-03T01:06:02.954Z,90.08
2023-05-03T01:06:35.361Z,89.87
2023-05-03T01:07:07.822Z,89.98
2023-05-03T01:07:40.186Z,90.81
2023-05-03T01:08:12.577Z,90.39
2023-05-03T01:08:45.010Z,90.81
2023-05-03T01:09:17.417Z,91.02
2023-05-03T01:09:50.710Z,91.33
2023-05-03T01:10:23.145Z,91.74
2023-05-03T01:10:55.721Z,92.26
2023-05-03T01:11:28.126Z,91.74
2023-05-03T01:12:00.533Z,91.53
2023-05-03T01:12:32.964Z,91.22
2023-05-03T01:13:05.375Z,91.22
2023-05-03T01:13:37.842Z,91.16
2023-05-03T01:14:10.256Z,91.64
2023-05-03T01:14:42.685Z,91.68
2023-05-03T01:15:15.099Z,91.58
2023-05-03T01:15:47.509Z,91.47
2023-05-03T01:16:19.983Z,91.68
2023-05-03T01:16:52.389Z,91.78
2023-05-03T01:17:24.814Z,91.99
2023-05-03T01:17:57.337Z,92.51
2023-05-03T01:18:29.734Z,92.61
2023-05-03T01:19:02.147Z,92.41
2023-05-03T01:19:34.571Z,92.41
2023-05-03T01:20:07.008Z,92.30
2023-05-03T01:20:39.415Z,91.99
2023-05-03T01:21:11.831Z,91.78
2023-05-03T01:21:44.225Z,91.89
2023-05-03T01:22:16.664Z,91.68
2023-05-03T01:22:49.115Z,91.89
2023-05-03T01:23:21.555Z,92.10
2023-05-03T01:23:54.009Z,92.41
2023-05-03T01:24:26.414Z,92.72
2023-05-03T01:24:58.874Z,92.93
2023-05-03T01:25:31.341Z,93.13
2023-05-03T01:26:03.773Z,93.44
2023-05-03T01:26:36.277Z,93.07
2023-05-03T01:27:08.717Z,92.97
2023-05-03T01:27:41.266Z,92.97
2023-05-03T01:28:13.665Z,92.55
2023-05-03T01:28:46.080Z,92.35
2023-05-03T01:29:18.478Z,92.76
2023-05-03T01:29:50.917Z,92.76
2023-05-03T01:30:23.380Z,92.55
2023-05-03T01:30:55.831Z,92.55
2023-05-03T01:31:28.285Z,92.28
2023-05-03T01:32:00.721Z,92.28
2023-05-03T01:32:33.169Z,92.80
2023-05-03T01:33:05.603Z,92.90
2023-05-03T01:33:38.010Z,93.01
2023-05-03T01:34:10.414Z,93.12
2023-05-03T01:34:42.847Z,93.01
2023-05-03T01:35:15.267Z,92.80
2023-05-03T01:35:47.678Z,92.80
2023-05-03T01:36:20.145Z,92.69
2023-05-03T01:36:52.588Z,93.12
2023-05-03T01:37:25.015Z,93.22
2023-05-03T01:37:57.425Z,93.12
2023-05-03T01:38:29.999Z,93.01
2023-05-03T01:39:02.415Z,93.12
2023-05-03T01:39:34.882Z,93.32
2023-05-03T01:40:07.315Z,93.43
2023-05-03T01:40:39.739Z,93.74
2023-05-03T01:41:12.158Z,93.84
2023-05-03T01:41:44.585Z,93.84
2023-05-03T01:42:17.011Z,93.95
2023-05-03T01:42:49.465Z,93.95
2023-05-03T01:43:21.893Z,93.95
2023-05-03T01:43:54.301Z,93.84
2023-05-03T01:44:26.725Z,93.95
2023-05-03T01:44:59.178Z,94.15
2023-05-03T01:45:31.626Z,94.46
2023-05-03T01:46:04.081Z,94.26
2023-05-03T01:46:36.466Z,94.46
2023-05-03T01:47:08.929Z,94.36
2023-05-03T01:47:41.327Z,93.99
2023-05-03T01:48:13.765Z,93.99
2023-05-03T01:48:46.156Z,93.99
2023-05-03T01:49:18.569Z,94.36
2023-05-03T01:49:51.004Z,94.30
2023-05-03T01:50:23.422Z,94.40
2023-05-03T01:50:55.873Z,94.61
2023-05-03T01:51:28.250Z,94.71
2023-05-03T01:52:00.671Z,94.40
2023-05-03T01:52:33.090Z,94.20
2023-05-03T01:53:05.503Z,94.09
2023-05-03T01:53:37.948Z,94.09
2023-05-03T01:54:10.371Z,94.40
2023-05-03T01:54:42.811Z,94.20
2023-05-03T01:55:15.244Z,94.09
2023-05-03T01:55:47.666Z,94.30
2023-05-03T01:56:20.108Z,94.40
2023-05-03T01:56:52.545Z,94.40
2023-05-03T01:57:24.972Z,94.82
2023-05-03T01:57:57.429Z,94.92
2023-05-03T01:58:29.853Z,95.03
2023-05-03T01:59:02.287Z,94.82
2023-05-03T01:59:34.724Z,94.92
2023-05-03T02:00:07.176Z,94.86
2023-05-03T02:00:39.613Z,94.65
2023-05-03T02:01:12.095Z,95.07
2023-05-03T02:01:44.546Z,95.48
2023-05-03T02:02:16.905Z,95.65
2023-05-03T02:02:49.374Z,95.65
2023-05-03T02:03:21.777Z,95.54
2023-05-03T02:03:54.214Z,95.29
2023-05-03T02:04:26.657Z,94.98
2023-05-03T02:04:59.041Z,95.09
2023-05-03T02:05:31.478Z,95.29
2023-05-03T02:06:03.932Z,95.29
2023-05-03T02:06:36.365Z,94.98
2023-05-03T02:07:08.784Z,94.84
2023-05-03T02:07:41.172Z,94.63
2023-05-03T02:08:13.579Z,94.32
2023-05-03T02:08:46.014Z,94.11
2023-05-03T02:09:18.421Z,93.80
2023-05-03T02:09:50.848Z,93.70
2023-05-03T02:10:23.234Z,94.01
2023-05-03T02:10:55.652Z,94.11
2023-05-03T02:11:28.047Z,94.21
2023-05-03T02:12:00.518Z,94.11
2023-05-03T02:12:32.953Z,93.80
2023-05-03T02:13:05.417Z,94.11
2023-05-03T02:13:37.828Z,94.01
2023-05-03T02:14:10.266Z,94.21
2023-05-03T02:14:42.720Z,94.32
2023-05-03T02:15:15.183Z,94.42
2023-05-03T02:15:47.611Z,94.46
2023-05-03T02:16:20.076Z,94.67
2023-05-03T02:16:52.508Z,94.46
2023-05-03T02:17:24.957Z,94.57
2023-05-03T02:17:57.390Z,94.36
2023-05-03T02:18:29.794Z,94.15
2023-05-03T02:19:02.309Z,94.15
2023-05-03T02:19:34.799Z,94.36
2023-05-03T02:20:07.249Z,94.57
2023-05-03T02:20:39.658Z,94.98
2023-05-03T02:21:12.086Z,95.40
2023-05-03T02:21:44.507Z,95.71
2023-05-03T02:22:16.955Z,95.54
2023-05-03T02:22:49.410Z,95.86
2023-05-03T02:23:21.788Z,95.75
2023-05-03T02:23:54.194Z,95.54
2023-05-03T02:24:26.607Z,95.03
2023-05-03T02:24:59.062Z,94.71
2023-05-03T02:25:31.504Z,94.92
2023-05-03T02:26:04.146Z,95.28
2023-05-03T02:26:36.568Z,95.17
2023-05-03T02:27:09.016Z,95.07
2023-05-03T02:27:41.463Z,95.28
2023-05-03T02:28:13.867Z,95.28
2023-05-03T02:28:46.292Z,95.07
2023-05-03T02:29:18.729Z,95.28
2023-05-03T02:29:51.113Z,95.28
2023-05-03T02:30:23.575Z,95.28
2023-05-03T02:30:56.034Z,95.07
2023-05-03T02:31:28.559Z,95.21
2023-05-03T02:32:00.867Z,95.11
2023-05-03T02:32:33.409Z,95.11
2023-05-03T02:33:05.756Z,95.11
2023-05-03T02:33:38.166Z,95.21
2023-05-03T02:34:10.616Z,95.63
2023-05-03T02:34:43.025Z,95.84
2023-05-03T02:35:15.439Z,96.04
2023-05-03T02:35:47.862Z,95.73
2023-05-03T02:36:20.263Z,95.73
2023-05-03T02:36:52.712Z,95.84
2023-05-03T02:37:25.136Z,96.04
2023-05-03T02:37:57.606Z,96.15
2023-05-03T02:38:30.027Z,95.94
2023-05-03T02:39:02.439Z,95.73
2023-05-03T02:39:34.843Z,95.67
2023-05-03T02:40:07.303Z,95.67
2023-05-03T02:40:39.707Z,95.89
2023-05-03T02:41:12.134Z,95.78
2023-05-03T02:41:44.553Z,95.89
2023-05-03T02:42:16.981Z,96.09
2023-05-03T02:42:49.417Z,96.20
2023-05-03T02:43:21.836Z,96.30
2023-05-03T02:43:54.281Z,96.30
2023-05-03T02:44:26.712Z,96.41
2023-05-03T02:44:59.158Z,96.20
2023-05-03T02:45:31.601Z,96.20
2023-05-03T02:46:04.010Z,96.30
2023-05-03T02:46:36.506Z,96.30
2023-05-03T02:47:08.843Z,96.51
2023-05-03T02:47:41.290Z,96.51
2023-05-03T02:48:13.740Z,96.61
2023-05-03T02:48:46.147Z,96.51
2023-05-03T02:49:18.588Z,96.41
2023-05-03T02:49:51.017Z,96.09
2023-05-03T02:50:23.417Z,96.20
2023-05-03T02:50:55.848Z,96.20
2023-05-03T02:51:28.303Z,96.09
2023-05-03T02:52:00.718Z,96.34
2023-05-03T02:52:33.139Z,96.24
2023-05-03T02:53:05.589Z,96.24
2023-05-03T02:53:38.037Z,96.45
2023-05-03T02:54:10.468Z,96.76
2023-05-03T02:54:42.914Z,97.03
2023-05-03T02:55:15.368Z,97.34
2023-05-03T02:55:47.792Z,97.55
2023-05-03T02:56:20.221Z,97.55
2023-05-03T02:56:52.643Z,97.55
2023-05-03T02:57:25.052Z,97.65
2023-05-03T02:57:57.476Z,97.65
2023-05-03T02:58:29.905Z,97.55
2023-05-03T02:59:02.305Z,97.65
2023-05-03T02:59:34.746Z,97.65
2023-05-03T03:00:07.153Z,97.65
2023-05-03T03:00:39.552Z,97.65
2023-05-03T03:01:11.978Z,97.65
2023-05-03T03:01:44.400Z,97.86
2023-05-03T03:02:16.809Z,97.75
2023-05-03T03:02:49.303Z,97.86
2023-05-03T03:03:21.718Z,97.75
2023-05-03T03:03:54.151Z,97.44
2023-05-03T03:04:26.565Z,97.38
2023-05-03T03:04:58.978Z,97.49
2023-05-03T03:05:31.387Z,97.28
2023-05-03T03:06:03.847Z,97.49
2023-05-03T03:06:36.365Z,97.38
2023-05-03T03:07:08.742Z,97.49
2023-05-03T03:07:41.185Z,97.38
2023-05-03T03:08:13.605Z,97.49
2023-05-03T03:08:46.027Z,97.59
2023-05-03T03:09:18.420Z,97.38
2023-05-03T03:09:50.862Z,97.38
2023-05-03T03:10:23.229Z,97.59
2023-05-03T03:10:55.667Z,97.70
2023-05-03T03:11:28.121Z,97.49
2023-05-03T03:12:00.537Z,97.70
2023-05-03T03:12:32.966Z,97.80
2023-05-03T03:13:05.415Z,97.70
2023-05-03T03:13:37.837Z,97.59
2023-05-03T03:14:10.250Z,97.59
2023-05-03T03:14:42.664Z,97.91
2023-05-03T03:15:15.086Z,97.91
2023-05-03T03:15:47.533Z,97.91
2023-05-03T03:16:19.925Z,97.80
2023-05-03T03:16:52.385Z,97.70
2023-05-03T03:17:24.792Z,97.70
2023-05-03T03:17:57.358Z,97.80
2023-05-03T03:18:29.737Z,97.80
2023-05-03T03:19:02.165Z,97.80
2023-05-03T03:19:34.587Z,97.80
2023-05-03T03:20:06.985Z,97.70
2023-05-03T03:20:39.410Z,97.70
2023-05-03T03:21:11.829Z,97.70
2023-05-03T03:21:44.366Z,97.80
2023-05-03T03:22:16.793Z,97.80
2023-05-03T03:22:49.223Z,97.95
2023-05-03T03:23:21.646Z,98.05
2023-05-03T03:23:54.044Z,97.85
2023-05-03T03:24:26.443Z,97.74
2023-05-03T03:24:58.869Z,97.74
2023-05-03T03:25:31.296Z,97.85
2023-05-03T03:26:03.707Z,97.74
2023-05-03T03:26:36.130Z,97.95
2023-05-03T03:27:08.569Z,97.74
2023-05-03T03:27:41.016Z,97.64
2023-05-03T03:28:13.432Z,97.68
2023-05-03T03:28:45.850Z,97.47
2023-05-03T03:29:18.248Z,97.78
2023-05-03T03:29:50.689Z,97.89
2023-05-03T03:30:23.106Z,97.68
2023-05-03T03:30:55.533Z,97.78
2023-05-03T03:31:28.086Z,97.78
2023-05-03T03:32:00.507Z,97.68
2023-05-03T03:32:32.920Z,97.78
2023-05-03T03:33:05.390Z,97.89
2023-05-03T03:33:37.776Z,97.78
2023-05-03T03:34:10.183Z,97.89
2023-05-03T03:34:42.632Z,97.83
2023-05-03T03:35:15.073Z,97.78
2023-05-03T03:35:47.486Z,97.72
2023-05-03T03:36:19.907Z,97.83
2023-05-03T03:36:52.321Z,97.94
2023-05-03T03:37:24.725Z,97.94
2023-05-03T03:37:57.147Z,97.83
2023-05-03T03:38:29.557Z,97.94
2023-05-03T03:39:01.977Z,98.04
2023-05-03T03:39:34.434Z,97.94
2023-05-03T03:40:06.817Z,98.04
2023-05-03T03:40:39.288Z,97.83
2023-05-03T03:41:11.670Z,97.83
2023-05-03T03:41:44.108Z,97.83
2023-05-03T03:42:17.222Z,97.94
2023-05-03T03:42:49.011Z,98.14
2023-05-03T03:43:21.441Z,98.25
2023-05-03T03:43:53.930Z,98.14
2023-05-03T03:44:26.360Z,98.14
2023-05-03T03:44:58.770Z,98.25
2023-05-03T03:45:31.213Z,98.25
2023-05-03T03:46:03.643Z,98.14
2023-05-03T03:46:36.088Z,98.14
2023-05-03T03:47:08.581Z,98.25
2023-05-03T03:47:41.018Z,98.25
2023-05-03T03:48:13.466Z,98.46
2023-05-03T03:48:45.795Z,98.25
2023-05-03T03:49:18.232Z,98.35
2023-05-03T03:49:50.614Z,98.46
2023-05-03T03:50:23.149Z,98.46
2023-05-03T03:50:55.545Z,98.66
2023-05-03T03:51:27.990Z,98.97
2023-05-03T03:52:00.392Z,98.87
2023-05-03T03:52:32.831Z,99.18
2023-05-03T03:53:05.260Z,99.18
2023-05-03T03:53:37.688Z,99.40
2023-05-03T03:54:10.108Z,99.08
2023-05-03T03:54:42.511Z,98.97
2023-05-03T03:55:14.928Z,98.87
2023-05-03T03:55:47.349Z,98.97
2023-05-03T03:56:19.765Z,98.77
2023-05-03T03:56:52.176Z,99.04
2023-05-03T03:57:24.580Z,98.87
2023-05-03T03:57:57.001Z,98.97
2023-05-03T03:58:29.418Z,98.97
2023-05-03T03:59:01.856Z,99.35
2023-05-03T03:59:34.277Z,99.55
2023-05-03T04:00:06.750Z,99.55
2023-05-03T04:00:39.148Z,99.51
2023-05-03T04:01:11.558Z,99.51
2023-05-03T04:01:44.034Z,99.62
2023-05-03T04:02:16.450Z,99.72
2023-05-03T04:02:48.957Z,99.62
2023-05-03T04:03:21.409Z,99.51
2023-05-03T04:03:53.834Z,99.46
2023-05-03T04:04:26.220Z,99.46
2023-05-03T04:04:58.599Z,99.46
2023-05-03T04:05:31.083Z,99.46
2023-05-03T04:06:03.541Z,99.42
2023-05-03T04:06:35.967Z,99.42
2023-05-03T04:07:08.372Z,99.32
2023-05-03T04:07:40.812Z,99.32
2023-05-03T04:08:13.261Z,99.11
2023-05-03T04:08:45.660Z,98.85
2023-05-03T04:09:18.075Z,98.54
2023-05-03T04:09:50.513Z,98.33
2023-05-03T04:10:22.916Z,98.13
2023-05-03T04:10:55.341Z,97.92
2023-05-03T04:11:27.761Z,97.88
2023-05-03T04:12:00.176Z,97.67
2023-05-03T04:12:32.587Z,97.77
2023-05-03T04:13:04.999Z,97.67
2023-05-03T04:13:37.428Z,98.08
2023-05-03T04:14:09.835Z,98.08
2023-05-03T04:14:42.261Z,98.33
2023-05-03T04:15:14.684Z,98.44
2023-05-03T04:15:47.096Z,98.54
2023-05-03T04:16:19.566Z,98.54
2023-05-03T04:16:51.947Z,98.33
2023-05-03T04:17:24.432Z,98.02
2023-05-03T04:17:56.854Z,97.77
2023-05-03T04:18:29.781Z,97.56
2023-05-03T04:19:02.211Z,97.25
2023-05-03T04:19:34.623Z,96.94
2023-05-03T04:20:07.087Z,96.62
2023-05-03T04:20:39.480Z,96.42
2023-05-03T04:21:11.915Z,96.62
2023-05-03T04:21:44.357Z,96.42
2023-05-03T04:22:16.771Z,96.52
2023-05-03T04:22:49.220Z,96.62
2023-05-03T04:23:21.717Z,96.73
2023-05-03T04:23:54.111Z,96.62
2023-05-03T04:24:26.585Z,96.48
2023-05-03T04:24:59.026Z,96.37
2023-05-03T04:25:31.501Z,96.37
2023-05-03T04:26:05.091Z,96.17
2023-05-03T04:26:36.410Z,96.06
2023-05-03T04:27:08.900Z,95.96
2023-05-03T04:27:41.330Z,96.06
2023-05-03T04:28:13.730Z,96.27
2023-05-03T04:28:46.170Z,96.17
2023-05-03T04:29:18.579Z,96.12
2023-05-03T04:29:50.996Z,96.12
2023-05-03T04:30:23.433Z,96.12
2023-05-03T04:30:55.893Z,96.02
2023-05-03T04:31:28.363Z,96.06
2023-05-03T04:32:00.701Z,96.23
2023-05-03T04:32:33.120Z,96.48
2023-05-03T04:33:05.535Z,96.33
2023-05-03T04:33:37.950Z,96.12
2023-05-03T04:34:10.374Z,95.81
2023-05-03T04:34:42.802Z,95.61
2023-05-03T04:35:15.269Z,95.40
2023-05-03T04:35:47.666Z,95.29
2023-05-03T04:36:20.102Z,95.36
2023-05-03T04:36:52.507Z,95.36
2023-05-03T04:37:24.937Z,95.15
2023-05-03T04:37:57.396Z,94.94
2023-05-03T04:38:29.834Z,94.84
2023-05-03T04:39:02.288Z,94.94
2023-05-03T04:39:34.704Z,95.15
2023-05-03T04:40:07.132Z,95.25
2023-05-03T04:40:39.528Z,95.15
2023-05-03T04:41:12.817Z,95.25
2023-05-03T04:41:44.397Z,95.04
2023-05-03T04:42:16.826Z,95.04
2023-05-03T04:42:49.250Z,95.04
2023-05-03T04:43:21.711Z,95.04
2023-05-03T04:43:54.188Z,94.94
2023-05-03T04:44:26.604Z,94.84
2023-05-03T04:44:59.048Z,94.94
2023-05-03T04:45:31.479Z,95.04
2023-05-03T04:46:04.015Z,95.04
2023-05-03T04:46:36.411Z,94.94
2023-05-03T04:47:08.775Z,94.79
2023-05-03T04:47:41.258Z,94.73
2023-05-03T04:48:13.822Z,94.68
2023-05-03T04:48:46.101Z,94.68
2023-05-03T04:49:18.541Z,94.48
2023-05-03T04:49:51.016Z,94.27
2023-05-03T04:50:23.402Z,94.37
2023-05-03T04:50:55.818Z,94.48
2023-05-03T04:51:28.254Z,94.79
2023-05-03T04:52:00.673Z,94.79
2023-05-03T04:52:33.121Z,94.79
2023-05-03T04:53:05.564Z,94.79
2023-05-03T04:53:37.953Z,94.79
2023-05-03T04:54:10.393Z,94.89
2023-05-03T04:54:42.811Z,94.79
2023-05-03T04:55:15.289Z,94.68
2023-05-03T04:55:47.737Z,94.68
2023-05-03T04:56:20.196Z,94.79
2023-05-03T04:56:52.664Z,94.89
2023-05-03T04:57:25.127Z,95.10
2023-05-03T04:57:57.528Z,95.10
2023-05-03T04:58:29.962Z,95.10
2023-05-03T04:59:02.393Z,94.89
2023-05-03T04:59:34.886Z,94.79
2023-05-03T05:00:07.293Z,95.00
2023-05-03T05:00:39.729Z,95.00
2023-05-03T05:02:56.156Z,95.31
2023-05-03T05:03:28.532Z,95.31
2023-05-03T05:04:01.081Z,95.31
2023-05-03T05:04:33.239Z,95.20
2023-05-03T05:05:05.654Z,95.31
2023-05-03T05:05:38.090Z,95.62
2023-05-03T05:06:10.570Z,95.62
2023-05-03T05:06:42.964Z,95.83
2023-05-03T05:07:15.401Z,95.72
2023-05-03T05:07:47.809Z,95.72
2023-05-03T05:08:20.261Z,95.83
2023-05-03T05:08:52.647Z,96.14
2023-05-03T05:09:25.125Z,95.87
2023-05-03T05:09:57.554Z,96.19
2023-05-03T05:10:29.992Z,95.98
2023-05-03T05:11:03.256Z,95.72
2023-05-03T05:11:35.717Z,95.62
2023-05-03T05:12:08.737Z,95.41
2023-05-03T05:12:41.174Z,95.20
2023-05-03T05:13:13.611Z,95.00
2023-05-03T05:13:46.066Z,94.79
2023-05-03T05:14:18.476Z,94.79
2023-05-03T05:14:50.955Z,94.79
2023-05-03T05:15:23.398Z,95.10
2023-05-03T05:15:55.834Z,95.20
2023-05-03T05:16:28.288Z,95.26
2023-05-03T05:17:00.771Z,95.26
2023-05-03T05:17:33.210Z,94.95
2023-05-03T05:18:05.654Z,94.74
2023-05-03T05:18:38.094Z,94.95
2023-05-03T05:19:10.526Z,94.95
2023-05-03T05:19:42.984Z,94.54
2023-05-03T05:20:16.928Z,94.54
2023-05-03T05:20:47.900Z,94.23
2023-05-03T05:21:20.336Z,94.02
2023-05-03T05:21:52.775Z,93.71
2023-05-03T05:22:25.275Z,93.50
2023-05-03T05:22:57.731Z,93.56
2023-05-03T05:23:30.201Z,93.25
2023-05-03T05:24:02.687Z,92.94
2023-05-03T05:24:35.152Z,92.94
2023-05-03T05:25:07.583Z,93.04
2023-05-03T05:25:40.025Z,93.04
2023-05-03T05:26:12.485Z,92.90
2023-05-03T05:26:46.519Z,92.80
2023-05-03T05:27:19.716Z,92.90
2023-05-03T05:27:53.009Z,92.38
2023-05-03T05:28:25.411Z,91.97
2023-05-03T05:28:57.855Z,91.41
2023-05-03T05:29:30.247Z,91.30
2023-05-03T05:30:02.945Z,91.41
2023-05-03T05:30:35.206Z,91.41
2023-05-03T05:31:07.704Z,91.41
2023-05-03T05:31:40.172Z,91.30
2023-05-03T05:32:12.505Z,91.20
2023-05-03T05:32:44.972Z,90.95
2023-05-03T05:33:19.187Z,90.84
2023-05-03T05:33:49.841Z,90.53
2023-05-03T05:34:22.257Z,90.23
2023-05-03T05:34:54.689Z,90.12
2023-05-03T05:35:27.153Z,89.81
2023-05-03T05:35:59.595Z,89.46
2023-05-03T05:36:32.072Z,89.25
2023-05-03T05:37:04.499Z,89.36
2023-05-03T05:37:36.940Z,89.15
2023-05-03T05:38:09.333Z,89.15
2023-05-03T05:38:41.751Z,89.04
2023-05-03T05:39:14.158Z,89.32
2023-05-03T05:39:47.512Z,89.42
2023-05-03T05:40:19.914Z,89.52
2023-05-03T05:40:53.009Z,89.73
2023-05-03T05:41:25.466Z,89.22
2023-05-03T05:41:57.959Z,88.59
2023-05-03T05:42:32.037Z,87.93
2023-05-03T05:43:05.041Z,87.73
2023-05-03T05:43:37.464Z,87.83
2023-05-03T05:44:10.513Z,87.93
2023-05-03T05:44:42.939Z,87.79
2023-05-03T05:45:15.393Z,87.58
2023-05-03T05:45:47.899Z,87.17
2023-05-03T05:46:21.131Z,86.96
2023-05-03T05:46:53.481Z,86.71
2023-05-03T05:47:26.324Z,86.51
2023-05-03T05:47:58.491Z,86.41
2023-05-03T05:48:31.509Z,86.51
2023-05-03T05:49:04.810Z,86.78
2023-05-03T05:49:38.015Z,86.88
2023-05-03T05:50:17.703Z,86.57
2023-05-03T05:50:43.505Z,86.02
2023-05-03T05:51:15.976Z,85.60
2023-05-03T05:51:49.025Z,85.30
2023-05-03T05:52:22.260Z,84.94
2023-05-03T05:52:54.701Z,85.05
2023-05-03T05:53:27.150Z,84.80
2023-05-03T05:53:59.615Z,83.94
2023-05-03T05:54:32.071Z,83.94
2023-05-03T05:55:04.620Z,83.80
2023-05-03T05:55:37.046Z,83.97
2023-05-03T05:56:09.479Z,83.04
2023-05-03T05:56:41.949Z,81.97
2023-05-03T05:57:14.441Z,81.42
2023-05-03T05:57:46.966Z,80.77
2023-05-03T05:58:19.466Z,79.36
2023-05-03T05:58:51.983Z,78.29
2023-05-03T05:59:24.506Z,77.61
2023-05-03T05:59:56.928Z,77.23
2023-05-03T06:00:29.463Z,75.93
2023-05-03T06:01:01.870Z,73.13
2023-05-03T06:01:35.267Z,72.45
2023-05-03T06:02:07.705Z,71.29
2023-05-03T06:02:40.213Z,69.79
2023-05-03T06:03:12.661Z,69.12
2023-05-03T06:03:45.011Z,67.46
2023-05-03T06:04:17.457Z,66.71
2023-05-03T06:04:49.953Z,66.44
2023-05-03T06:05:22.427Z,64.38
2023-05-03T06:05:54.839Z,63.02
2023-05-03T06:06:28.354Z,61.47
2023-05-03T06:07:00.815Z,59.82
2023-05-03T06:07:34.025Z,59.48
2023-05-03T06:08:07.246Z,59.66
2023-05-03T06:08:40.627Z,57.91
2023-05-03T06:09:23.629Z,57.40
2023-05-03T06:09:45.525Z,56.87
2023-05-03T06:10:18.528Z,56.13
2023-05-03T06:10:51.759Z,56.01
2023-05-03T06:11:25.517Z,56.69
2023-05-03T06:11:57.942Z,56.36
2023-05-03T06:12:30.450Z,55.02
2023-05-03T06:13:02.960Z,52.89
2023-05-03T06:13:35.418Z,52.26
2023-05-03T06:14:07.885Z,52.06
2023-05-03T06:14:46.284Z,52.03
2023-05-03T06:15:12.768Z,52.44
2023-05-03T06:15:45.240Z,53.72
2023-05-03T06:16:17.697Z,52.39
2023-05-03T06:16:50.689Z,53.67
2023-05-03T06:17:22.911Z,53.14
2023-05-03T06:17:55.591Z,53.83
2023-05-03T06:18:27.947Z,51.99
2023-05-03T06:19:00.415Z,51.79
2023-05-03T06:19:33.751Z,50.93
2023-05-03T06:20:06.448Z,49.42
2023-05-03T06:20:38.632Z,48.69
2023-05-03T06:21:11.054Z,47.89
2023-05-03T06:21:43.485Z,48.99
2023-05-03T06:22:16.761Z,47.46
2023-05-03T06:22:49.222Z,47.26
2023-05-03T06:23:21.665Z,47.44
2023-05-03T06:23:54.088Z,47.04
2023-05-03T06:24:26.572Z,47.74
2023-05-03T06:24:59.028Z,46.51
2023-05-03T06:25:32.021Z,44.51
2023-05-03T06:26:04.465Z,43.90
2023-05-03T06:26:37.532Z,44.02
2023-05-03T06:27:09.987Z,45.43
2023-05-03T06:27:42.485Z,45.33
2023-05-03T06:28:15.794Z,46.84
2023-05-03T06:28:49.027Z,45.13
2023-05-03T06:29:21.543Z,44.23
2023-05-03T06:29:55.522Z,44.53
2023-05-03T06:30:27.997Z,45.10
2023-05-03T06:31:00.479Z,44.31
2023-05-03T06:31:32.988Z,44.10
2023-05-03T06:32:06.022Z,43.80
2023-05-03T06:32:38.505Z,44.28
2023-05-03T06:33:11.719Z,44.38
2023-05-03T06:33:44.545Z,43.26
2023-05-03T06:34:17.552Z,42.58
2023-05-03T06:34:50.013Z,44.36
2023-05-03T06:35:22.507Z,45.77
2023-05-03T06:35:55.000Z,44.44
2023-05-03T06:36:28.031Z,43.54
2023-05-03T06:37:00.536Z,43.42
2023-05-03T06:37:34.051Z,42.41
2023-05-03T06:38:06.499Z,43.72
2023-05-03T06:38:39.793Z,44.92
2023-05-03T06:39:12.296Z,42.69
2023-05-03T06:39:45.527Z,42.60
2023-05-03T06:40:17.984Z,43.60
2023-05-03T06:40:50.454Z,42.57
2023-05-03T06:41:22.901Z,41.88
2023-05-03T06:41:56.031Z,41.77
2023-05-03T06:42:28.459Z,42.47
2023-05-03T06:43:00.933Z,42.38
2023-05-03T06:43:33.397Z,41.25
2023-05-03T06:44:05.858Z,41.17
2023-05-03T06:44:38.302Z,40.97
2023-05-03T06:45:10.751Z,41.57
2023-05-03T06:45:43.237Z,40.87
2023-05-03T06:46:17.139Z,40.47
2023-05-03T06:46:48.199Z,40.77
2023-05-03T06:47:20.597Z,41.67
2023-05-03T06:47:53.275Z,40.77
2023-05-03T06:48:26.591Z,41.57
2023-05-03T06:48:59.027Z,41.57
2023-05-03T06:49:31.452Z,40.85
2023-05-03T06:50:04.417Z,41.15
2023-05-03T06:50:37.075Z,41.13
2023-05-03T06:51:09.482Z,39.53
2023-05-03T06:51:41.931Z,39.73
2023-05-03T06:52:14.380Z,40.63
2023-05-03T06:52:46.879Z,40.71
2023-05-03T06:53:19.327Z,39.81
2023-05-03T06:53:52.274Z,40.50
2023-05-03T06:54:24.731Z,42.38
2023-05-03T06:54:57.216Z,41.36
2023-05-03T06:55:29.664Z,40.04
2023-05-03T06:56:02.103Z,38.74
2023-05-03T06:56:35.264Z,38.72
2023-05-03T06:57:08.285Z,38.42
2023-05-03T06:57:40.720Z,37.90
2023-05-03T06:58:13.766Z,39.00
2023-05-03T06:58:46.200Z,37.40
2023-05-03T06:59:20.043Z,37.01
2023-05-03T06:59:52.480Z,36.11